sensor_id;sensor_type;location;lat;lon;timestamp;P1;durP1;ratioP1;P2;durP2;ratioP2
13487;SDS011;6816;48.506;9.050;2024-01-11T00:02:58;30.93;;;17.97;;
13487;SDS011;6816;48.506;9.050;2024-01-11T00:05:58;32.10;;;17.03;;
13487;SDS011;6816;48.506;9.050;2024-01-11T00:09:01;34.03;;;17.67;;
13487;SDS011;6816;48.506;9.050;2024-01-11T00:12:01;35.03;;;18.87;;
13487;SDS011;6816;48.506;9.050;2024-01-11T00:15:02;30.93;;;16.27;;
13487;SDS011;6816;48.506;9.050;2024-01-11T00:18:03;31.17;;;17.77;;
13487;SDS011;6816;48.506;9.050;2024-01-11T00:21:04;34.83;;;18.73;;
13487;SDS011;6816;48.506;9.050;2024-01-11T00:24:04;38.57;;;19.63;;
13487;SDS011;6816;48.506;9.050;2024-01-11T00:27:05;34.53;;;17.97;;
13487;SDS011;6816;48.506;9.050;2024-01-11T00:30:06;31.37;;;17.47;;
13487;SDS011;6816;48.506;9.050;2024-01-11T00:33:07;33.63;;;18.67;;
13487;SDS011;6816;48.506;9.050;2024-01-11T00:36:08;32.60;;;17.10;;
13487;SDS011;6816;48.506;9.050;2024-01-11T00:39:09;31.10;;;17.17;;
13487;SDS011;6816;48.506;9.050;2024-01-11T00:42:11;33.80;;;18.47;;
13487;SDS011;6816;48.506;9.050;2024-01-11T00:45:12;35.80;;;18.00;;
13487;SDS011;6816;48.506;9.050;2024-01-11T00:48:12;37.40;;;19.40;;
13487;SDS011;6816;48.506;9.050;2024-01-11T00:51:13;33.77;;;18.97;;
13487;SDS011;6816;48.506;9.050;2024-01-11T00:54:15;31.50;;;17.33;;
13487;SDS011;6816;48.506;9.050;2024-01-11T00:57:15;33.80;;;19.40;;
13487;SDS011;6816;48.506;9.050;2024-01-11T01:00:16;28.67;;;16.80;;
13487;SDS011;6816;48.506;9.050;2024-01-11T01:03:17;42.50;;;20.60;;
13487;SDS011;6816;48.506;9.050;2024-01-11T01:06:17;37.60;;;19.50;;
13487;SDS011;6816;48.506;9.050;2024-01-11T01:09:18;34.73;;;18.10;;
13487;SDS011;6816;48.506;9.050;2024-01-11T01:12:19;35.10;;;20.07;;
13487;SDS011;6816;48.506;9.050;2024-01-11T01:15:19;36.27;;;18.57;;
13487;SDS011;6816;48.506;9.050;2024-01-11T01:18:20;30.70;;;17.73;;
13487;SDS011;6816;48.506;9.050;2024-01-11T01:21:20;34.50;;;18.73;;
13487;SDS011;6816;48.506;9.050;2024-01-11T01:24:21;35.77;;;18.30;;
13487;SDS011;6816;48.506;9.050;2024-01-11T01:27:22;36.40;;;19.33;;
13487;SDS011;6816;48.506;9.050;2024-01-11T01:30:22;35.23;;;18.10;;
13487;SDS011;6816;48.506;9.050;2024-01-11T01:33:23;34.30;;;18.40;;
13487;SDS011;6816;48.506;9.050;2024-01-11T01:36:24;38.57;;;19.90;;
13487;SDS011;6816;48.506;9.050;2024-01-11T01:39:24;34.53;;;19.27;;
13487;SDS011;6816;48.506;9.050;2024-01-11T01:42:25;33.23;;;18.60;;
13487;SDS011;6816;48.506;9.050;2024-01-11T01:45:25;40.00;;;19.27;;
13487;SDS011;6816;48.506;9.050;2024-01-11T01:48:27;29.37;;;16.83;;
13487;SDS011;6816;48.506;9.050;2024-01-11T01:51:28;36.37;;;19.47;;
13487;SDS011;6816;48.506;9.050;2024-01-11T01:54:31;35.80;;;17.73;;
13487;SDS011;6816;48.506;9.050;2024-01-11T01:57:32;42.10;;;18.60;;
13487;SDS011;6816;48.506;9.050;2024-01-11T02:00:34;34.70;;;19.20;;
13487;SDS011;6816;48.506;9.050;2024-01-11T02:03:35;34.57;;;18.77;;
13487;SDS011;6816;48.506;9.050;2024-01-11T02:06:36;33.00;;;18.03;;
13487;SDS011;6816;48.506;9.050;2024-01-11T02:09:37;34.03;;;17.67;;
13487;SDS011;6816;48.506;9.050;2024-01-11T02:12:38;30.07;;;16.70;;
13487;SDS011;6816;48.506;9.050;2024-01-11T02:15:41;36.80;;;19.10;;
13487;SDS011;6816;48.506;9.050;2024-01-11T02:18:42;34.30;;;18.80;;
13487;SDS011;6816;48.506;9.050;2024-01-11T02:21:42;34.60;;;19.17;;
13487;SDS011;6816;48.506;9.050;2024-01-11T02:24:44;33.70;;;19.20;;
13487;SDS011;6816;48.506;9.050;2024-01-11T02:27:48;31.30;;;18.07;;
13487;SDS011;6816;48.506;9.050;2024-01-11T02:30:49;32.27;;;16.87;;
13487;SDS011;6816;48.506;9.050;2024-01-11T02:33:51;26.70;;;15.47;;
13487;SDS011;6816;48.506;9.050;2024-01-11T02:36:55;29.97;;;15.97;;
13487;SDS011;6816;48.506;9.050;2024-01-11T02:39:56;33.70;;;18.60;;
13487;SDS011;6816;48.506;9.050;2024-01-11T02:42:57;33.93;;;18.50;;
13487;SDS011;6816;48.506;9.050;2024-01-11T02:45:57;28.10;;;15.53;;
13487;SDS011;6816;48.506;9.050;2024-01-11T02:48:59;34.03;;;18.80;;
13487;SDS011;6816;48.506;9.050;2024-01-11T02:51:59;30.90;;;17.73;;
13487;SDS011;6816;48.506;9.050;2024-01-11T02:55:00;36.23;;;18.33;;
13487;SDS011;6816;48.506;9.050;2024-01-11T02:58:04;34.70;;;18.90;;
13487;SDS011;6816;48.506;9.050;2024-01-11T03:01:04;29.83;;;17.40;;
13487;SDS011;6816;48.506;9.050;2024-01-11T03:04:05;35.87;;;17.43;;
13487;SDS011;6816;48.506;9.050;2024-01-11T03:07:06;31.90;;;17.33;;
13487;SDS011;6816;48.506;9.050;2024-01-11T03:10:07;33.30;;;18.87;;
13487;SDS011;6816;48.506;9.050;2024-01-11T03:13:07;33.17;;;17.87;;
13487;SDS011;6816;48.506;9.050;2024-01-11T03:16:08;30.30;;;16.47;;
13487;SDS011;6816;48.506;9.050;2024-01-11T03:19:09;32.37;;;17.77;;
13487;SDS011;6816;48.506;9.050;2024-01-11T03:22:11;30.80;;;16.57;;
13487;SDS011;6816;48.506;9.050;2024-01-11T03:25:12;33.77;;;19.30;;
13487;SDS011;6816;48.506;9.050;2024-01-11T03:28:12;26.97;;;15.43;;
13487;SDS011;6816;48.506;9.050;2024-01-11T03:31:13;29.60;;;16.47;;
13487;SDS011;6816;48.506;9.050;2024-01-11T03:34:14;30.57;;;16.30;;
13487;SDS011;6816;48.506;9.050;2024-01-11T03:37:14;32.73;;;17.70;;
13487;SDS011;6816;48.506;9.050;2024-01-11T03:40:16;29.40;;;15.97;;
13487;SDS011;6816;48.506;9.050;2024-01-11T03:43:17;32.80;;;17.23;;
13487;SDS011;6816;48.506;9.050;2024-01-11T03:46:18;33.90;;;18.23;;
13487;SDS011;6816;48.506;9.050;2024-01-11T03:49:19;35.47;;;19.07;;
13487;SDS011;6816;48.506;9.050;2024-01-11T03:52:19;35.97;;;17.87;;
13487;SDS011;6816;48.506;9.050;2024-01-11T03:55:20;37.00;;;18.53;;
13487;SDS011;6816;48.506;9.050;2024-01-11T03:58:21;31.00;;;17.40;;
13487;SDS011;6816;48.506;9.050;2024-01-11T04:01:22;35.13;;;17.33;;
13487;SDS011;6816;48.506;9.050;2024-01-11T04:04:22;35.23;;;17.90;;
13487;SDS011;6816;48.506;9.050;2024-01-11T04:07:23;28.07;;;14.13;;
13487;SDS011;6816;48.506;9.050;2024-01-11T04:10:24;30.33;;;16.93;;
13487;SDS011;6816;48.506;9.050;2024-01-11T04:13:24;32.20;;;16.20;;
13487;SDS011;6816;48.506;9.050;2024-01-11T04:16:25;30.13;;;15.10;;
13487;SDS011;6816;48.506;9.050;2024-01-11T04:19:26;29.77;;;16.27;;
13487;SDS011;6816;48.506;9.050;2024-01-11T04:22:27;30.30;;;16.47;;
13487;SDS011;6816;48.506;9.050;2024-01-11T04:25:28;32.67;;;18.67;;
13487;SDS011;6816;48.506;9.050;2024-01-11T04:28:29;31.70;;;15.33;;
13487;SDS011;6816;48.506;9.050;2024-01-11T04:31:29;25.23;;;13.27;;
13487;SDS011;6816;48.506;9.050;2024-01-11T04:34:30;30.30;;;15.13;;
13487;SDS011;6816;48.506;9.050;2024-01-11T04:37:31;31.73;;;16.23;;
13487;SDS011;6816;48.506;9.050;2024-01-11T04:40:32;31.23;;;16.70;;
13487;SDS011;6816;48.506;9.050;2024-01-11T04:43:32;33.97;;;17.53;;
13487;SDS011;6816;48.506;9.050;2024-01-11T04:46:33;33.77;;;18.00;;
13487;SDS011;6816;48.506;9.050;2024-01-11T04:49:36;36.40;;;17.67;;
13487;SDS011;6816;48.506;9.050;2024-01-11T04:52:37;30.83;;;15.93;;
13487;SDS011;6816;48.506;9.050;2024-01-11T04:55:37;31.63;;;16.97;;
13487;SDS011;6816;48.506;9.050;2024-01-11T04:58:39;35.00;;;17.83;;
13487;SDS011;6816;48.506;9.050;2024-01-11T05:01:41;30.93;;;16.23;;
13487;SDS011;6816;48.506;9.050;2024-01-11T05:04:42;33.53;;;16.63;;
13487;SDS011;6816;48.506;9.050;2024-01-11T05:07:42;34.03;;;17.30;;
13487;SDS011;6816;48.506;9.050;2024-01-11T05:10:43;31.33;;;16.73;;
13487;SDS011;6816;48.506;9.050;2024-01-11T05:13:44;28.03;;;14.40;;
13487;SDS011;6816;48.506;9.050;2024-01-11T05:16:48;28.20;;;15.60;;
13487;SDS011;6816;48.506;9.050;2024-01-11T05:19:50;27.00;;;13.93;;
13487;SDS011;6816;48.506;9.050;2024-01-11T05:22:51;28.83;;;15.33;;
13487;SDS011;6816;48.506;9.050;2024-01-11T05:25:51;32.07;;;16.73;;
13487;SDS011;6816;48.506;9.050;2024-01-11T05:28:52;33.70;;;17.13;;
13487;SDS011;6816;48.506;9.050;2024-01-11T05:31:52;30.03;;;16.37;;
13487;SDS011;6816;48.506;9.050;2024-01-11T05:34:53;32.73;;;16.63;;
13487;SDS011;6816;48.506;9.050;2024-01-11T05:37:54;29.03;;;16.03;;
13487;SDS011;6816;48.506;9.050;2024-01-11T05:40:57;29.33;;;15.40;;
13487;SDS011;6816;48.506;9.050;2024-01-11T05:43:58;30.90;;;16.17;;
13487;SDS011;6816;48.506;9.050;2024-01-11T05:46:58;27.97;;;15.23;;
13487;SDS011;6816;48.506;9.050;2024-01-11T05:49:59;27.23;;;12.77;;
13487;SDS011;6816;48.506;9.050;2024-01-11T05:53:00;32.13;;;16.67;;
13487;SDS011;6816;48.506;9.050;2024-01-11T05:56:00;30.40;;;15.07;;
13487;SDS011;6816;48.506;9.050;2024-01-11T05:59:01;21.83;;;12.70;;
13487;SDS011;6816;48.506;9.050;2024-01-11T06:02:02;26.17;;;14.67;;
13487;SDS011;6816;48.506;9.050;2024-01-11T06:05:03;31.50;;;16.00;;
13487;SDS011;6816;48.506;9.050;2024-01-11T06:08:04;30.30;;;16.37;;
13487;SDS011;6816;48.506;9.050;2024-01-11T06:11:05;30.43;;;15.70;;
13487;SDS011;6816;48.506;9.050;2024-01-11T06:14:07;29.50;;;16.10;;
13487;SDS011;6816;48.506;9.050;2024-01-11T06:17:08;27.30;;;14.30;;
13487;SDS011;6816;48.506;9.050;2024-01-11T06:20:11;33.90;;;17.27;;
13487;SDS011;6816;48.506;9.050;2024-01-11T06:23:11;23.23;;;13.40;;
13487;SDS011;6816;48.506;9.050;2024-01-11T06:26:12;27.50;;;14.17;;
13487;SDS011;6816;48.506;9.050;2024-01-11T06:29:12;32.93;;;17.00;;
13487;SDS011;6816;48.506;9.050;2024-01-11T06:32:13;31.90;;;15.53;;
13487;SDS011;6816;48.506;9.050;2024-01-11T06:35:14;28.37;;;15.53;;
13487;SDS011;6816;48.506;9.050;2024-01-11T06:38:14;30.37;;;14.47;;
13487;SDS011;6816;48.506;9.050;2024-01-11T06:41:15;30.47;;;15.23;;
13487;SDS011;6816;48.506;9.050;2024-01-11T06:44:16;29.37;;;14.60;;
13487;SDS011;6816;48.506;9.050;2024-01-11T06:47:18;27.93;;;13.97;;
13487;SDS011;6816;48.506;9.050;2024-01-11T06:50:22;25.37;;;14.20;;
13487;SDS011;6816;48.506;9.050;2024-01-11T06:53:29;25.03;;;13.10;;
13487;SDS011;6816;48.506;9.050;2024-01-11T06:56:30;30.83;;;16.07;;
13487;SDS011;6816;48.506;9.050;2024-01-11T06:59:31;34.23;;;19.20;;
13487;SDS011;6816;48.506;9.050;2024-01-11T07:02:32;37.17;;;18.73;;
13487;SDS011;6816;48.506;9.050;2024-01-11T07:05:32;29.40;;;14.87;;
13487;SDS011;6816;48.506;9.050;2024-01-11T07:08:33;30.70;;;15.97;;
13487;SDS011;6816;48.506;9.050;2024-01-11T07:11:34;26.37;;;14.97;;
13487;SDS011;6816;48.506;9.050;2024-01-11T07:14:35;25.70;;;14.47;;
13487;SDS011;6816;48.506;9.050;2024-01-11T07:17:36;26.43;;;15.23;;
13487;SDS011;6816;48.506;9.050;2024-01-11T07:20:37;24.30;;;14.10;;
13487;SDS011;6816;48.506;9.050;2024-01-11T07:23:38;33.23;;;17.03;;
13487;SDS011;6816;48.506;9.050;2024-01-11T07:26:40;34.37;;;16.93;;
13487;SDS011;6816;48.506;9.050;2024-01-11T07:29:40;31.57;;;15.87;;
13487;SDS011;6816;48.506;9.050;2024-01-11T07:32:41;35.47;;;17.70;;
13487;SDS011;6816;48.506;9.050;2024-01-11T07:35:42;27.20;;;16.20;;
13487;SDS011;6816;48.506;9.050;2024-01-11T07:38:43;36.43;;;18.90;;
13487;SDS011;6816;48.506;9.050;2024-01-11T07:41:44;32.90;;;16.53;;
13487;SDS011;6816;48.506;9.050;2024-01-11T07:44:47;32.77;;;17.13;;
13487;SDS011;6816;48.506;9.050;2024-01-11T07:47:48;24.03;;;14.73;;
13487;SDS011;6816;48.506;9.050;2024-01-11T07:50:49;33.63;;;18.37;;
13487;SDS011;6816;48.506;9.050;2024-01-11T07:53:49;34.90;;;18.50;;
13487;SDS011;6816;48.506;9.050;2024-01-11T07:56:50;33.27;;;17.67;;
13487;SDS011;6816;48.506;9.050;2024-01-11T07:59:50;33.17;;;17.03;;
13487;SDS011;6816;48.506;9.050;2024-01-11T08:02:51;31.87;;;17.53;;
13487;SDS011;6816;48.506;9.050;2024-01-11T08:05:52;32.37;;;18.60;;
13487;SDS011;6816;48.506;9.050;2024-01-11T08:08:56;33.83;;;18.77;;
13487;SDS011;6816;48.506;9.050;2024-01-11T08:11:57;33.70;;;17.63;;
13487;SDS011;6816;48.506;9.050;2024-01-11T08:14:58;27.37;;;15.43;;
13487;SDS011;6816;48.506;9.050;2024-01-11T08:17:59;31.93;;;16.50;;
13487;SDS011;6816;48.506;9.050;2024-01-11T08:21:00;27.27;;;16.03;;
13487;SDS011;6816;48.506;9.050;2024-01-11T08:24:01;34.23;;;18.00;;
13487;SDS011;6816;48.506;9.050;2024-01-11T08:27:02;30.37;;;16.93;;
13487;SDS011;6816;48.506;9.050;2024-01-11T08:30:04;34.13;;;17.37;;
13487;SDS011;6816;48.506;9.050;2024-01-11T08:33:05;35.30;;;18.33;;
13487;SDS011;6816;48.506;9.050;2024-01-11T08:36:06;33.60;;;18.00;;
13487;SDS011;6816;48.506;9.050;2024-01-11T08:39:06;39.07;;;18.27;;
13487;SDS011;6816;48.506;9.050;2024-01-11T08:42:08;33.53;;;17.83;;
13487;SDS011;6816;48.506;9.050;2024-01-11T08:45:08;36.77;;;17.33;;
13487;SDS011;6816;48.506;9.050;2024-01-11T08:48:09;31.57;;;16.77;;
13487;SDS011;6816;48.506;9.050;2024-01-11T08:51:11;32.67;;;17.67;;
13487;SDS011;6816;48.506;9.050;2024-01-11T08:54:11;33.83;;;17.90;;
13487;SDS011;6816;48.506;9.050;2024-01-11T08:57:12;36.30;;;18.47;;
13487;SDS011;6816;48.506;9.050;2024-01-11T09:00:13;32.93;;;17.20;;
13487;SDS011;6816;48.506;9.050;2024-01-11T09:03:17;29.70;;;16.70;;
13487;SDS011;6816;48.506;9.050;2024-01-11T09:06:17;33.43;;;18.17;;
13487;SDS011;6816;48.506;9.050;2024-01-11T09:09:18;34.07;;;17.87;;
13487;SDS011;6816;48.506;9.050;2024-01-11T09:12:19;32.27;;;17.50;;
13487;SDS011;6816;48.506;9.050;2024-01-11T09:15:20;26.60;;;15.17;;
13487;SDS011;6816;48.506;9.050;2024-01-11T09:18:21;33.10;;;16.57;;
13487;SDS011;6816;48.506;9.050;2024-01-11T09:21:21;32.07;;;18.53;;
13487;SDS011;6816;48.506;9.050;2024-01-11T09:24:22;32.60;;;18.17;;
13487;SDS011;6816;48.506;9.050;2024-01-11T09:27:22;32.10;;;18.40;;
13487;SDS011;6816;48.506;9.050;2024-01-11T09:30:23;34.23;;;18.17;;
13487;SDS011;6816;48.506;9.050;2024-01-11T09:33:24;32.17;;;19.30;;
13487;SDS011;6816;48.506;9.050;2024-01-11T09:36:24;33.50;;;18.47;;
13487;SDS011;6816;48.506;9.050;2024-01-11T09:39:25;29.10;;;17.60;;
13487;SDS011;6816;48.506;9.050;2024-01-11T09:42:25;30.67;;;17.27;;
13487;SDS011;6816;48.506;9.050;2024-01-11T09:45:28;33.73;;;17.73;;
13487;SDS011;6816;48.506;9.050;2024-01-11T09:48:28;31.80;;;17.03;;
13487;SDS011;6816;48.506;9.050;2024-01-11T09:51:29;30.47;;;16.90;;
13487;SDS011;6816;48.506;9.050;2024-01-11T09:54:31;29.50;;;17.87;;
13487;SDS011;6816;48.506;9.050;2024-01-11T09:57:32;29.23;;;16.90;;
13487;SDS011;6816;48.506;9.050;2024-01-11T10:00:38;28.73;;;16.47;;
13487;SDS011;6816;48.506;9.050;2024-01-11T10:03:40;30.10;;;17.20;;
13487;SDS011;6816;48.506;9.050;2024-01-11T10:06:41;29.23;;;16.90;;
13487;SDS011;6816;48.506;9.050;2024-01-11T10:09:42;27.77;;;16.70;;
13487;SDS011;6816;48.506;9.050;2024-01-11T10:12:42;28.10;;;16.83;;
13487;SDS011;6816;48.506;9.050;2024-01-11T10:15:43;28.33;;;16.27;;
13487;SDS011;6816;48.506;9.050;2024-01-11T10:18:44;26.13;;;16.17;;
13487;SDS011;6816;48.506;9.050;2024-01-11T10:21:45;31.30;;;17.50;;
13487;SDS011;6816;48.506;9.050;2024-01-11T10:24:52;31.97;;;17.63;;
13487;SDS011;6816;48.506;9.050;2024-01-11T10:28:09;31.57;;;17.30;;
13487;SDS011;6816;48.506;9.050;2024-01-11T10:31:13;28.07;;;17.60;;
13487;SDS011;6816;48.506;9.050;2024-01-11T10:34:15;29.00;;;17.10;;
13487;SDS011;6816;48.506;9.050;2024-01-11T10:37:16;26.17;;;17.00;;
13487;SDS011;6816;48.506;9.050;2024-01-11T10:40:18;31.83;;;18.20;;
13487;SDS011;6816;48.506;9.050;2024-01-11T10:43:24;28.13;;;18.20;;
13487;SDS011;6816;48.506;9.050;2024-01-11T10:46:25;32.73;;;18.10;;
13487;SDS011;6816;48.506;9.050;2024-01-11T10:49:27;30.17;;;19.33;;
13487;SDS011;6816;48.506;9.050;2024-01-11T10:52:28;26.07;;;18.00;;
13487;SDS011;6816;48.506;9.050;2024-01-11T10:55:34;28.63;;;17.43;;
13487;SDS011;6816;48.506;9.050;2024-01-11T10:58:36;26.50;;;17.80;;
13487;SDS011;6816;48.506;9.050;2024-01-11T11:01:39;28.20;;;18.87;;
13487;SDS011;6816;48.506;9.050;2024-01-11T11:04:40;34.57;;;19.17;;
13487;SDS011;6816;48.506;9.050;2024-01-11T11:07:42;29.17;;;19.13;;
13487;SDS011;6816;48.506;9.050;2024-01-11T11:10:43;29.00;;;19.30;;
13487;SDS011;6816;48.506;9.050;2024-01-11T11:13:47;27.43;;;18.00;;
13487;SDS011;6816;48.506;9.050;2024-01-11T11:16:51;31.50;;;19.47;;
13487;SDS011;6816;48.506;9.050;2024-01-11T11:19:52;30.27;;;19.33;;
13487;SDS011;6816;48.506;9.050;2024-01-11T11:23:13;26.30;;;18.33;;
13487;SDS011;6816;48.506;9.050;2024-01-11T11:26:17;28.00;;;18.47;;
13487;SDS011;6816;48.506;9.050;2024-01-11T11:29:17;25.20;;;18.40;;
13487;SDS011;6816;48.506;9.050;2024-01-11T11:32:34;27.17;;;19.07;;
13487;SDS011;6816;48.506;9.050;2024-01-11T11:35:36;28.87;;;19.60;;
13487;SDS011;6816;48.506;9.050;2024-01-11T11:38:37;29.33;;;19.23;;
13487;SDS011;6816;48.506;9.050;2024-01-11T11:41:39;28.63;;;19.63;;
13487;SDS011;6816;48.506;9.050;2024-01-11T11:44:49;30.10;;;20.33;;
13487;SDS011;6816;48.506;9.050;2024-01-11T11:47:50;28.77;;;19.17;;
13487;SDS011;6816;48.506;9.050;2024-01-11T11:51:00;31.20;;;20.90;;
13487;SDS011;6816;48.506;9.050;2024-01-11T11:54:18;30.03;;;19.50;;
13487;SDS011;6816;48.506;9.050;2024-01-11T11:57:35;29.83;;;20.33;;
13487;SDS011;6816;48.506;9.050;2024-01-11T12:00:36;31.63;;;21.20;;
13487;SDS011;6816;48.506;9.050;2024-01-11T12:03:38;30.57;;;21.07;;
13487;SDS011;6816;48.506;9.050;2024-01-11T12:06:40;29.30;;;20.27;;
13487;SDS011;6816;48.506;9.050;2024-01-11T12:09:42;33.03;;;21.73;;
13487;SDS011;6816;48.506;9.050;2024-01-11T12:12:43;31.27;;;20.90;;
13487;SDS011;6816;48.506;9.050;2024-01-11T12:15:43;30.13;;;21.27;;
13487;SDS011;6816;48.506;9.050;2024-01-11T12:19:10;29.83;;;20.07;;
13487;SDS011;6816;48.506;9.050;2024-01-11T12:22:11;33.37;;;21.53;;
13487;SDS011;6816;48.506;9.050;2024-01-11T12:25:11;27.27;;;19.63;;
13487;SDS011;6816;48.506;9.050;2024-01-11T12:28:12;28.90;;;20.30;;
13487;SDS011;6816;48.506;9.050;2024-01-11T12:31:13;27.37;;;19.63;;
13487;SDS011;6816;48.506;9.050;2024-01-11T12:34:14;28.57;;;19.73;;
13487;SDS011;6816;48.506;9.050;2024-01-11T12:37:15;27.40;;;19.83;;
13487;SDS011;6816;48.506;9.050;2024-01-11T12:40:16;30.63;;;20.37;;
13487;SDS011;6816;48.506;9.050;2024-01-11T12:43:17;29.50;;;19.93;;
13487;SDS011;6816;48.506;9.050;2024-01-11T12:46:17;30.77;;;20.23;;
13487;SDS011;6816;48.506;9.050;2024-01-11T12:49:18;29.17;;;20.80;;
13487;SDS011;6816;48.506;9.050;2024-01-11T12:52:19;29.23;;;21.00;;
13487;SDS011;6816;48.506;9.050;2024-01-11T12:55:23;28.30;;;18.53;;
13487;SDS011;6816;48.506;9.050;2024-01-11T12:58:25;29.83;;;20.03;;
13487;SDS011;6816;48.506;9.050;2024-01-11T13:01:26;30.10;;;20.13;;
13487;SDS011;6816;48.506;9.050;2024-01-11T13:04:28;31.30;;;21.60;;
13487;SDS011;6816;48.506;9.050;2024-01-11T13:07:30;31.87;;;20.33;;
13487;SDS011;6816;48.506;9.050;2024-01-11T13:10:32;30.30;;;20.17;;
13487;SDS011;6816;48.506;9.050;2024-01-11T13:13:34;30.47;;;21.20;;
13487;SDS011;6816;48.506;9.050;2024-01-11T13:16:53;31.50;;;20.97;;
13487;SDS011;6816;48.506;9.050;2024-01-11T13:20:24;32.00;;;20.47;;
13487;SDS011;6816;48.506;9.050;2024-01-11T13:23:26;29.10;;;19.67;;
13487;SDS011;6816;48.506;9.050;2024-01-11T13:26:27;30.23;;;20.97;;
13487;SDS011;6816;48.506;9.050;2024-01-11T13:29:28;29.27;;;20.53;;
13487;SDS011;6816;48.506;9.050;2024-01-11T13:32:29;28.77;;;20.13;;
13487;SDS011;6816;48.506;9.050;2024-01-11T13:35:30;30.77;;;21.27;;
13487;SDS011;6816;48.506;9.050;2024-01-11T13:38:50;32.63;;;20.90;;
13487;SDS011;6816;48.506;9.050;2024-01-11T13:41:51;31.70;;;21.57;;
13487;SDS011;6816;48.506;9.050;2024-01-11T13:44:52;32.07;;;21.00;;
13487;SDS011;6816;48.506;9.050;2024-01-11T13:47:53;29.90;;;21.00;;
13487;SDS011;6816;48.506;9.050;2024-01-11T13:50:54;30.83;;;20.83;;
13487;SDS011;6816;48.506;9.050;2024-01-11T13:53:55;30.97;;;21.17;;
13487;SDS011;6816;48.506;9.050;2024-01-11T13:56:56;33.67;;;21.83;;
13487;SDS011;6816;48.506;9.050;2024-01-11T13:59:56;32.20;;;21.93;;
13487;SDS011;6816;48.506;9.050;2024-01-11T14:02:57;33.77;;;21.97;;
13487;SDS011;6816;48.506;9.050;2024-01-11T14:05:58;31.50;;;21.57;;
13487;SDS011;6816;48.506;9.050;2024-01-11T14:08:59;34.03;;;21.47;;
13487;SDS011;6816;48.506;9.050;2024-01-11T14:12:00;34.53;;;21.90;;
13487;SDS011;6816;48.506;9.050;2024-01-11T14:15:01;31.60;;;20.87;;
13487;SDS011;6816;48.506;9.050;2024-01-11T14:18:31;31.60;;;21.27;;
13487;SDS011;6816;48.506;9.050;2024-01-11T14:21:32;31.30;;;21.83;;
13487;SDS011;6816;48.506;9.050;2024-01-11T14:24:32;33.77;;;21.40;;
13487;SDS011;6816;48.506;9.050;2024-01-11T14:27:50;30.97;;;21.40;;
13487;SDS011;6816;48.506;9.050;2024-01-11T14:31:11;30.63;;;21.73;;
13487;SDS011;6816;48.506;9.050;2024-01-11T14:34:11;27.33;;;18.83;;
13487;SDS011;6816;48.506;9.050;2024-01-11T14:37:42;32.50;;;20.93;;
13487;SDS011;6816;48.506;9.050;2024-01-11T14:41:31;32.33;;;21.00;;
13487;SDS011;6816;48.506;9.050;2024-01-11T14:48:38;29.73;;;19.73;;
13487;SDS011;6816;48.506;9.050;2024-01-11T14:52:51;29.13;;;18.43;;
13487;SDS011;6816;48.506;9.050;2024-01-11T14:56:53;30.43;;;21.13;;
13487;SDS011;6816;48.506;9.050;2024-01-11T14:59:54;28.27;;;20.50;;
13487;SDS011;6816;48.506;9.050;2024-01-11T15:03:05;30.27;;;20.27;;
13487;SDS011;6816;48.506;9.050;2024-01-11T15:07:23;31.40;;;20.97;;
13487;SDS011;6816;48.506;9.050;2024-01-11T15:10:28;28.93;;;18.50;;
13487;SDS011;6816;48.506;9.050;2024-01-11T15:14:10;27.63;;;19.07;;
13487;SDS011;6816;48.506;9.050;2024-01-11T15:17:22;29.43;;;20.00;;
13487;SDS011;6816;48.506;9.050;2024-01-11T15:21:38;28.33;;;19.50;;
13487;SDS011;6816;48.506;9.050;2024-01-11T15:24:49;32.20;;;19.57;;
13487;SDS011;6816;48.506;9.050;2024-01-11T15:28:14;29.33;;;19.33;;
13487;SDS011;6816;48.506;9.050;2024-01-11T15:32:14;28.33;;;19.77;;
13487;SDS011;6816;48.506;9.050;2024-01-11T15:35:33;27.53;;;18.67;;
13487;SDS011;6816;48.506;9.050;2024-01-11T15:39:31;29.33;;;19.03;;
13487;SDS011;6816;48.506;9.050;2024-01-11T15:42:32;27.87;;;20.10;;
13487;SDS011;6816;48.506;9.050;2024-01-11T15:45:53;34.27;;;20.10;;
13487;SDS011;6816;48.506;9.050;2024-01-11T15:49:42;30.63;;;19.27;;
13487;SDS011;6816;48.506;9.050;2024-01-11T15:52:42;28.63;;;20.20;;
13487;SDS011;6816;48.506;9.050;2024-01-11T15:55:46;29.70;;;20.13;;
13487;SDS011;6816;48.506;9.050;2024-01-11T15:59:06;28.53;;;19.23;;
13487;SDS011;6816;48.506;9.050;2024-01-11T16:02:50;29.63;;;19.20;;
13487;SDS011;6816;48.506;9.050;2024-01-11T16:06:11;32.33;;;19.90;;
13487;SDS011;6816;48.506;9.050;2024-01-11T16:09:13;32.37;;;19.33;;
13487;SDS011;6816;48.506;9.050;2024-01-11T16:13:16;29.77;;;18.03;;
13487;SDS011;6816;48.506;9.050;2024-01-11T16:17:18;31.83;;;19.10;;
13487;SDS011;6816;48.506;9.050;2024-01-11T16:20:19;29.93;;;19.80;;
13487;SDS011;6816;48.506;9.050;2024-01-11T16:23:31;31.07;;;19.70;;
13487;SDS011;6816;48.506;9.050;2024-01-11T16:27:12;31.20;;;18.57;;
13487;SDS011;6816;48.506;9.050;2024-01-11T16:30:13;29.57;;;18.10;;
13487;SDS011;6816;48.506;9.050;2024-01-11T16:33:14;33.87;;;20.10;;
13487;SDS011;6816;48.506;9.050;2024-01-11T16:36:39;31.63;;;19.67;;
13487;SDS011;6816;48.506;9.050;2024-01-11T16:39:39;32.23;;;21.23;;
13487;SDS011;6816;48.506;9.050;2024-01-11T16:42:40;32.97;;;21.87;;
13487;SDS011;6816;48.506;9.050;2024-01-11T16:45:44;32.97;;;20.27;;
13487;SDS011;6816;48.506;9.050;2024-01-11T16:48:48;34.97;;;21.83;;
13487;SDS011;6816;48.506;9.050;2024-01-11T16:51:49;34.03;;;20.83;;
13487;SDS011;6816;48.506;9.050;2024-01-11T16:54:50;34.13;;;20.50;;
13487;SDS011;6816;48.506;9.050;2024-01-11T16:57:51;33.43;;;19.17;;
13487;SDS011;6816;48.506;9.050;2024-01-11T17:00:51;34.00;;;20.43;;
13487;SDS011;6816;48.506;9.050;2024-01-11T17:03:52;34.70;;;19.47;;
13487;SDS011;6816;48.506;9.050;2024-01-11T17:06:53;34.87;;;20.63;;
13487;SDS011;6816;48.506;9.050;2024-01-11T17:09:53;30.40;;;19.00;;
13487;SDS011;6816;48.506;9.050;2024-01-11T17:12:54;34.77;;;19.83;;
13487;SDS011;6816;48.506;9.050;2024-01-11T17:15:55;31.70;;;18.33;;
13487;SDS011;6816;48.506;9.050;2024-01-11T17:18:55;32.20;;;19.90;;
13487;SDS011;6816;48.506;9.050;2024-01-11T17:21:56;37.53;;;20.20;;
13487;SDS011;6816;48.506;9.050;2024-01-11T17:25:15;35.73;;;20.60;;
13487;SDS011;6816;48.506;9.050;2024-01-11T17:28:16;32.03;;;20.33;;
13487;SDS011;6816;48.506;9.050;2024-01-11T17:31:26;35.63;;;22.30;;
13487;SDS011;6816;48.506;9.050;2024-01-11T17:35:32;32.20;;;19.37;;
13487;SDS011;6816;48.506;9.050;2024-01-11T17:38:34;38.93;;;23.17;;
13487;SDS011;6816;48.506;9.050;2024-01-11T17:41:37;39.40;;;23.30;;
13487;SDS011;6816;48.506;9.050;2024-01-11T17:44:44;39.37;;;23.50;;
13487;SDS011;6816;48.506;9.050;2024-01-11T17:47:45;39.33;;;24.50;;
13487;SDS011;6816;48.506;9.050;2024-01-11T17:50:48;39.00;;;22.87;;
13487;SDS011;6816;48.506;9.050;2024-01-11T17:53:49;40.67;;;23.43;;
13487;SDS011;6816;48.506;9.050;2024-01-11T17:56:51;38.00;;;22.67;;
13487;SDS011;6816;48.506;9.050;2024-01-11T17:59:52;42.20;;;24.37;;
13487;SDS011;6816;48.506;9.050;2024-01-11T18:02:54;37.37;;;22.23;;
13487;SDS011;6816;48.506;9.050;2024-01-11T18:05:54;33.33;;;19.93;;
13487;SDS011;6816;48.506;9.050;2024-01-11T18:08:55;40.87;;;23.23;;
13487;SDS011;6816;48.506;9.050;2024-01-11T18:11:56;34.83;;;20.37;;
13487;SDS011;6816;48.506;9.050;2024-01-11T18:14:56;38.83;;;21.20;;
13487;SDS011;6816;48.506;9.050;2024-01-11T18:17:57;37.10;;;21.23;;
13487;SDS011;6816;48.506;9.050;2024-01-11T18:20:58;33.97;;;20.20;;